sensor_id;sensor_type;location;lat;lon;timestamp;pressure;altitude;pressure_sealevel;temperature
76476;BMP280;65308;50.078;14.854;2024-02-26T00:01:32;97880.69;;;2.67
76476;BMP280;65308;50.078;14.854;2024-02-26T00:03:59;97887.56;;;2.64
76476;BMP280;65308;50.078;14.854;2024-02-26T00:06:27;97883.44;;;2.63
76476;BMP280;65308;50.078;14.854;2024-02-26T00:08:54;97878.91;;;2.64
76476;BMP280;65308;50.078;14.854;2024-02-26T00:11:20;97883.09;;;2.61
76476;BMP280;65308;50.078;14.854;2024-02-26T00:13:47;97875.19;;;2.61
76476;BMP280;65308;50.078;14.854;2024-02-26T00:16:15;97874.50;;;2.57
76476;BMP280;65308;50.078;14.854;2024-02-26T00:18:41;97874.59;;;2.53
76476;BMP280;65308;50.078;14.854;2024-02-26T00:21:08;97872.75;;;2.50
76476;BMP280;65308;50.078;14.854;2024-02-26T00:23:35;97862.25;;;2.47
76476;BMP280;65308;50.078;14.854;2024-02-26T00:26:01;97860.03;;;2.45
76476;BMP280;65308;50.078;14.854;2024-02-26T00:28:28;97862.03;;;2.41
76476;BMP280;65308;50.078;14.854;2024-02-26T00:30:55;97864.75;;;2.38
76476;BMP280;65308;50.078;14.854;2024-02-26T00:33:23;97861.41;;;2.33
76476;BMP280;65308;50.078;14.854;2024-02-26T00:35:50;97868.25;;;2.31
76476;BMP280;65308;50.078;14.854;2024-02-26T00:38:16;97860.34;;;2.31
76476;BMP280;65308;50.078;14.854;2024-02-26T00:40:43;97847.97;;;2.28
76476;BMP280;65308;50.078;14.854;2024-02-26T00:43:10;97855.94;;;2.24
76476;BMP280;65308;50.078;14.854;2024-02-26T00:45:36;97846.88;;;2.25
76476;BMP280;65308;50.078;14.854;2024-02-26T00:48:03;97845.66;;;2.30
76476;BMP280;65308;50.078;14.854;2024-02-26T00:50:32;97843.75;;;2.30
76476;BMP280;65308;50.078;14.854;2024-02-26T00:52:58;97855.19;;;2.24
76476;BMP280;65308;50.078;14.854;2024-02-26T00:55:25;97848.50;;;2.19
76476;BMP280;65308;50.078;14.854;2024-02-26T00:57:52;97850.06;;;2.17
76476;BMP280;65308;50.078;14.854;2024-02-26T01:00:18;97853.94;;;2.12
76476;BMP280;65308;50.078;14.854;2024-02-26T01:02:45;97849.25;;;2.20
76476;BMP280;65308;50.078;14.854;2024-02-26T01:05:12;97845.47;;;2.21
76476;BMP280;65308;50.078;14.854;2024-02-26T01:07:40;97842.66;;;2.11
76476;BMP280;65308;50.078;14.854;2024-02-26T01:10:08;97842.09;;;2.00
76476;BMP280;65308;50.078;14.854;2024-02-26T01:12:35;97847.50;;;1.93
76476;BMP280;65308;50.078;14.854;2024-02-26T01:15:02;97838.16;;;1.88
76476;BMP280;65308;50.078;14.854;2024-02-26T01:17:28;97839.75;;;1.86
76476;BMP280;65308;50.078;14.854;2024-02-26T01:19:55;97833.47;;;1.80
76476;BMP280;65308;50.078;14.854;2024-02-26T01:22:22;97827.91;;;1.74
76476;BMP280;65308;50.078;14.854;2024-02-26T01:24:50;97840.44;;;1.70
76476;BMP280;65308;50.078;14.854;2024-02-26T01:27:17;97831.41;;;1.67
76476;BMP280;65308;50.078;14.854;2024-02-26T01:29:44;97823.19;;;1.65
76476;BMP280;65308;50.078;14.854;2024-02-26T01:32:11;97822.41;;;1.65
76476;BMP280;65308;50.078;14.854;2024-02-26T01:34:38;97831.47;;;1.64
76476;BMP280;65308;50.078;14.854;2024-02-26T01:37:04;97830.06;;;1.59
76476;BMP280;65308;50.078;14.854;2024-02-26T01:39:31;97835.69;;;1.61
76476;BMP280;65308;50.078;14.854;2024-02-26T01:41:59;97822.63;;;1.54
76476;BMP280;65308;50.078;14.854;2024-02-26T01:44:26;97823.84;;;1.50
76476;BMP280;65308;50.078;14.854;2024-02-26T01:46:53;97811.47;;;1.46
76476;BMP280;65308;50.078;14.854;2024-02-26T01:49:20;97823.16;;;1.45
76476;BMP280;65308;50.078;14.854;2024-02-26T01:51:47;97813.03;;;1.44
76476;BMP280;65308;50.078;14.854;2024-02-26T01:54:14;97815.31;;;1.42
76476;BMP280;65308;50.078;14.854;2024-02-26T01:56:41;97812.69;;;1.42
76476;BMP280;65308;50.078;14.854;2024-02-26T01:59:09;97807.81;;;1.40
76476;BMP280;65308;50.078;14.854;2024-02-26T02:01:36;97808.53;;;1.41
76476;BMP280;65308;50.078;14.854;2024-02-26T02:04:03;97799.56;;;1.38
76476;BMP280;65308;50.078;14.854;2024-02-26T02:06:30;97801.78;;;1.40
76476;BMP280;65308;50.078;14.854;2024-02-26T02:08:57;97788.28;;;1.38
76476;BMP280;65308;50.078;14.854;2024-02-26T02:11:24;97791.59;;;1.42
76476;BMP280;65308;50.078;14.854;2024-02-26T02:13:50;97796.09;;;1.41
76476;BMP280;65308;50.078;14.854;2024-02-26T02:16:19;97801.38;;;1.41
76476;BMP280;65308;50.078;14.854;2024-02-26T02:18:45;97804.81;;;1.38
76476;BMP280;65308;50.078;14.854;2024-02-26T02:21:13;97804.44;;;1.40
76476;BMP280;65308;50.078;14.854;2024-02-26T02:23:40;97798.81;;;1.38
76476;BMP280;65308;50.078;14.854;2024-02-26T02:26:11;97807.13;;;1.36
76476;BMP280;65308;50.078;14.854;2024-02-26T02:28:39;97798.75;;;1.41
76476;BMP280;65308;50.078;14.854;2024-02-26T02:31:06;97804.44;;;1.40
76476;BMP280;65308;50.078;14.854;2024-02-26T02:33:33;97806.66;;;1.41
76476;BMP280;65308;50.078;14.854;2024-02-26T02:36:00;97807.06;;;1.40
76476;BMP280;65308;50.078;14.854;2024-02-26T02:38:28;97804.47;;;1.36
76476;BMP280;65308;50.078;14.854;2024-02-26T02:40:56;97809.34;;;1.38
76476;BMP280;65308;50.078;14.854;2024-02-26T02:43:22;97796.53;;;1.40
76476;BMP280;65308;50.078;14.854;2024-02-26T02:45:49;97795.44;;;1.37
76476;BMP280;65308;50.078;14.854;2024-02-26T02:48:15;97792.38;;;1.39
76476;BMP280;65308;50.078;14.854;2024-02-26T02:50:42;97780.72;;;1.40
76476;BMP280;65308;50.078;14.854;2024-02-26T02:53:08;97782.59;;;1.39
76476;BMP280;65308;50.078;14.854;2024-02-26T02:55:36;97782.25;;;1.37
76476;BMP280;65308;50.078;14.854;2024-02-26T02:58:03;97785.25;;;1.39
76476;BMP280;65308;50.078;14.854;2024-02-26T03:00:30;97776.50;;;1.42
76476;BMP280;65308;50.078;14.854;2024-02-26T03:02:57;97778.41;;;1.42
76476;BMP280;65308;50.078;14.854;2024-02-26T03:05:23;97775.44;;;1.40
76476;BMP280;65308;50.078;14.854;2024-02-26T03:07:50;97777.03;;;1.34
76476;BMP280;65308;50.078;14.854;2024-02-26T03:10:16;97788.50;;;1.23
76476;BMP280;65308;50.078;14.854;2024-02-26T03:12:45;97783.03;;;1.14
76476;BMP280;65308;50.078;14.854;2024-02-26T03:15:12;97788.66;;;1.16
76476;BMP280;65308;50.078;14.854;2024-02-26T03:17:38;97792.78;;;1.17
76476;BMP280;65308;50.078;14.854;2024-02-26T03:20:06;97784.38;;;1.22
76476;BMP280;65308;50.078;14.854;2024-02-26T03:22:33;97781.69;;;1.26
76476;BMP280;65308;50.078;14.854;2024-02-26T03:25:00;97773.72;;;1.30
76476;BMP280;65308;50.078;14.854;2024-02-26T03:27:27;97759.75;;;1.33
76476;BMP280;65308;50.078;14.854;2024-02-26T03:29:54;97771.03;;;1.33
76476;BMP280;65308;50.078;14.854;2024-02-26T03:32:22;97770.22;;;1.36
76476;BMP280;65308;50.078;14.854;2024-02-26T03:34:48;97777.72;;;1.38
76476;BMP280;65308;50.078;14.854;2024-02-26T03:37:15;97784.41;;;1.42
76476;BMP280;65308;50.078;14.854;2024-02-26T03:39:42;97780.63;;;1.43
76476;BMP280;65308;50.078;14.854;2024-02-26T03:42:08;97779.16;;;1.42
76476;BMP280;65308;50.078;14.854;2024-02-26T03:44:35;97787.31;;;1.48
76476;BMP280;65308;50.078;14.854;2024-02-26T03:47:03;97782.06;;;1.48
76476;BMP280;65308;50.078;14.854;2024-02-26T03:49:29;97779.06;;;1.46
76476;BMP280;65308;50.078;14.854;2024-02-26T03:51:56;97778.63;;;1.51
76476;BMP280;65308;50.078;14.854;2024-02-26T03:54:23;97783.59;;;1.45
76476;BMP280;65308;50.078;14.854;2024-02-26T03:56:49;97780.72;;;1.40
76476;BMP280;65308;50.078;14.854;2024-02-26T03:59:16;97776.50;;;1.42
76476;BMP280;65308;50.078;14.854;2024-02-26T04:01:45;97775.44;;;1.40
76476;BMP280;65308;50.078;14.854;2024-02-26T04:04:14;97781.84;;;1.39
76476;BMP280;65308;50.078;14.854;2024-02-26T04:06:44;97782.66;;;1.36
76476;BMP280;65308;50.078;14.854;2024-02-26T04:09:10;97778.06;;;1.40
76476;BMP280;65308;50.078;14.854;2024-02-26T04:11:37;97778.47;;;1.38
76476;BMP280;65308;50.078;14.854;2024-02-26T04:14:03;97776.63;;;1.35
76476;BMP280;65308;50.078;14.854;2024-02-26T04:16:31;97784.94;;;1.34
76476;BMP280;65308;50.078;14.854;2024-02-26T04:18:57;97773.59;;;1.37
76476;BMP280;65308;50.078;14.854;2024-02-26T04:21:25;97778.88;;;1.37
76476;BMP280;65308;50.078;14.854;2024-02-26T04:23:52;97784.16;;;1.37
76476;BMP280;65308;50.078;14.854;2024-02-26T04:26:20;97780.34;;;1.38
76476;BMP280;65308;50.078;14.854;2024-02-26T04:28:46;97773.25;;;1.35
76476;BMP280;65308;50.078;14.854;2024-02-26T04:31:13;97775.13;;;1.34
76476;BMP280;65308;50.078;14.854;2024-02-26T04:33:40;97774.75;;;1.36
76476;BMP280;65308;50.078;14.854;2024-02-26T04:36:12;97769.47;;;1.36
76476;BMP280;65308;50.078;14.854;2024-02-26T04:38:41;97775.47;;;1.36
76476;BMP280;65308;50.078;14.854;2024-02-26T04:41:07;97773.59;;;1.37
76476;BMP280;65308;50.078;14.854;2024-02-26T04:43:34;97775.56;;;1.33
76476;BMP280;65308;50.078;14.854;2024-02-26T04:46:06;97784.66;;;1.28
76476;BMP280;65308;50.078;14.854;2024-02-26T04:48:33;97787.69;;;1.26
76476;BMP280;65308;50.078;14.854;2024-02-26T04:51:00;97790.41;;;1.23
76476;BMP280;65308;50.078;14.854;2024-02-26T04:53:27;97799.88;;;1.20
76476;BMP280;65308;50.078;14.854;2024-02-26T04:55:55;97805.94;;;1.17
76476;BMP280;65308;50.078;14.854;2024-02-26T04:58:21;97812.03;;;1.14
76476;BMP280;65308;50.078;14.854;2024-02-26T05:00:48;97818.44;;;1.13
76476;BMP280;65308;50.078;14.854;2024-02-26T05:03:14;97809.03;;;1.12
76476;BMP280;65308;50.078;14.854;2024-02-26T05:05:41;97803.03;;;1.12
76476;BMP280;65308;50.078;14.854;2024-02-26T05:08:07;97809.84;;;1.09
76476;BMP280;65308;50.078;14.854;2024-02-26T05:10:34;97805.72;;;1.08
76476;BMP280;65308;50.078;14.854;2024-02-26T05:13:06;97802.75;;;1.06
76476;BMP280;65308;50.078;14.854;2024-02-26T05:15:32;97799.44;;;1.02
76476;BMP280;65308;50.078;14.854;2024-02-26T05:17:59;97796.06;;;1.01
76476;BMP280;65308;50.078;14.854;2024-02-26T05:20:25;97801.31;;;1.01
76476;BMP280;65308;50.078;14.854;2024-02-26T05:22:52;97806.91;;;1.03
76476;BMP280;65308;50.078;14.854;2024-02-26T05:25:18;97814.06;;;1.03
76476;BMP280;65308;50.078;14.854;2024-02-26T05:27:45;97816.72;;;1.03
76476;BMP280;65308;50.078;14.854;2024-02-26T05:30:14;97815.22;;;1.02
76476;BMP280;65308;50.078;14.854;2024-02-26T05:32:40;97808.88;;;0.99
76476;BMP280;65308;50.078;14.854;2024-02-26T05:35:07;97809.25;;;0.98
76476;BMP280;65308;50.078;14.854;2024-02-26T05:37:33;97815.28;;;0.98
76476;BMP280;65308;50.078;14.854;2024-02-26T05:40:00;97809.22;;;1.01
76476;BMP280;65308;50.078;14.854;2024-02-26T05:42:29;97811.78;;;1.05
76476;BMP280;65308;50.078;14.854;2024-02-26T05:44:56;97817.88;;;1.02
76476;BMP280;65308;50.078;14.854;2024-02-26T05:47:24;97819.09;;;0.94
76476;BMP280;65308;50.078;14.854;2024-02-26T05:49:51;97823.59;;;0.97
76476;BMP280;65308;50.078;14.854;2024-02-26T05:52:17;97832.78;;;0.85
76476;BMP280;65308;50.078;14.854;2024-02-26T05:54:44;97833.16;;;0.87
76476;BMP280;65308;50.078;14.854;2024-02-26T05:57:10;97823.34;;;0.88
76476;BMP280;65308;50.078;14.854;2024-02-26T05:59:37;97820.66;;;0.91
76476;BMP280;65308;50.078;14.854;2024-02-26T06:02:04;97830.72;;;0.96
76476;BMP280;65308;50.078;14.854;2024-02-26T06:04:32;97832.50;;;1.03
76476;BMP280;65308;50.078;14.854;2024-02-26T06:06:58;97835.84;;;1.07
76476;BMP280;65308;50.078;14.854;2024-02-26T06:09:25;97836.56;;;1.11
76476;BMP280;65308;50.078;14.854;2024-02-26T06:11:51;97841.72;;;1.18
76476;BMP280;65308;50.078;14.854;2024-02-26T06:14:19;97842.66;;;1.28
76476;BMP280;65308;50.078;14.854;2024-02-26T06:16:46;97846.31;;;1.34
76476;BMP280;65308;50.078;14.854;2024-02-26T06:19:13;97845.44;;;1.41
76476;BMP280;65308;50.078;14.854;2024-02-26T06:21:41;97855.41;;;1.53
76476;BMP280;65308;50.078;14.854;2024-02-26T06:24:08;97866.13;;;1.66
76476;BMP280;65308;50.078;14.854;2024-02-26T06:26:33;97866.25;;;1.79
76476;BMP280;65308;50.078;14.854;2024-02-26T06:29:00;97858.81;;;1.93
76476;BMP280;65308;50.078;14.854;2024-02-26T06:31:27;97864.59;;;2.08
76476;BMP280;65308;50.078;14.854;2024-02-26T06:33:54;97865.03;;;2.23
76476;BMP280;65308;50.078;14.854;2024-02-26T06:36:21;97871.09;;;2.40
76476;BMP280;65308;50.078;14.854;2024-02-26T06:38:49;97890.69;;;2.59
76476;BMP280;65308;50.078;14.854;2024-02-26T06:41:17;97885.50;;;2.72
76476;BMP280;65308;50.078;14.854;2024-02-26T06:43:43;97880.88;;;2.92
76476;BMP280;65308;50.078;14.854;2024-02-26T06:46:10;97879.69;;;3.10
76476;BMP280;65308;50.078;14.854;2024-02-26T06:48:36;97886.06;;;3.29
76476;BMP280;65308;50.078;14.854;2024-02-26T06:51:03;97878.78;;;3.49
76476;BMP280;65308;50.078;14.854;2024-02-26T06:53:30;97890.16;;;3.75
76476;BMP280;65308;50.078;14.854;2024-02-26T06:55:58;97897.47;;;4.26
76476;BMP280;65308;50.078;14.854;2024-02-26T06:58:25;97898.13;;;5.29
76476;BMP280;65308;50.078;14.854;2024-02-26T07:00:51;97910.13;;;6.71
76476;BMP280;65308;50.078;14.854;2024-02-26T07:03:18;97907.56;;;8.05
76476;BMP280;65308;50.078;14.854;2024-02-26T07:05:44;97906.94;;;9.15
76476;BMP280;65308;50.078;14.854;2024-02-26T07:08:11;97905.19;;;9.42
76476;BMP280;65308;50.078;14.854;2024-02-26T07:10:38;97905.91;;;9.13
76476;BMP280;65308;50.078;14.854;2024-02-26T07:13:06;97903.00;;;8.87
76476;BMP280;65308;50.078;14.854;2024-02-26T07:15:32;97902.22;;;8.72
76476;BMP280;65308;50.078;14.854;2024-02-26T07:17:59;97893.59;;;8.53
76476;BMP280;65308;50.078;14.854;2024-02-26T07:20:28;97883.66;;;8.20
76476;BMP280;65308;50.078;14.854;2024-02-26T07:22:55;97890.31;;;7.82
76476;BMP280;65308;50.078;14.854;2024-02-26T07:25:22;97897.47;;;7.58
76476;BMP280;65308;50.078;14.854;2024-02-26T07:27:49;97890.97;;;7.59
76476;BMP280;65308;50.078;14.854;2024-02-26T07:30:19;97896.56;;;7.61
76476;BMP280;65308;50.078;14.854;2024-02-26T07:32:49;97907.16;;;8.88
76476;BMP280;65308;50.078;14.854;2024-02-26T07:35:16;97896.94;;;10.20
76476;BMP280;65308;50.078;14.854;2024-02-26T07:37:43;97890.56;;;9.97
76476;BMP280;65308;50.078;14.854;2024-02-26T07:40:10;97885.31;;;9.73
76476;BMP280;65308;50.078;14.854;2024-02-26T07:42:37;97883.94;;;9.62
76476;BMP280;65308;50.078;14.854;2024-02-26T07:45:05;97883.75;;;9.36
76476;BMP280;65308;50.078;14.854;2024-02-26T07:47:33;97885.00;;;9.11
76476;BMP280;65308;50.078;14.854;2024-02-26T07:50:01;97885.81;;;8.88
76476;BMP280;65308;50.078;14.854;2024-02-26T07:52:27;97881.63;;;8.72
76476;BMP280;65308;50.078;14.854;2024-02-26T07:54:58;97880.78;;;8.57
76476;BMP280;65308;50.078;14.854;2024-02-26T07:57:26;97893.16;;;8.45
76476;BMP280;65308;50.078;14.854;2024-02-26T07:59:52;97889.91;;;8.17
76476;BMP280;65308;50.078;14.854;2024-02-26T08:02:21;97901.78;;;8.07
76476;BMP280;65308;50.078;14.854;2024-02-26T08:04:49;97898.53;;;8.03
76476;BMP280;65308;50.078;14.854;2024-02-26T08:07:16;97907.50;;;7.63
76476;BMP280;65308;50.078;14.854;2024-02-26T08:09:42;97911.97;;;7.11
76476;BMP280;65308;50.078;14.854;2024-02-26T08:12:09;97912.25;;;6.94
76476;BMP280;65308;50.078;14.854;2024-02-26T08:14:36;97911.78;;;6.96
76476;BMP280;65308;50.078;14.854;2024-02-26T08:17:03;97902.78;;;6.93
76476;BMP280;65308;50.078;14.854;2024-02-26T08:19:29;97905.91;;;7.01
76476;BMP280;65308;50.078;14.854;2024-02-26T08:21:57;97911.50;;;7.12
76476;BMP280;65308;50.078;14.854;2024-02-26T08:24:24;97920.53;;;7.24
76476;BMP280;65308;50.078;14.854;2024-02-26T08:26:50;97922.31;;;7.36
76476;BMP280;65308;50.078;14.854;2024-02-26T08:29:17;97919.94;;;7.38
76476;BMP280;65308;50.078;14.854;2024-02-26T08:31:43;97925.28;;;7.47
76476;BMP280;65308;50.078;14.854;2024-02-26T08:34:10;97925.84;;;7.51
76476;BMP280;65308;50.078;14.854;2024-02-26T08:36:37;97926.75;;;7.58
76476;BMP280;65308;50.078;14.854;2024-02-26T08:39:05;97933.69;;;7.55
76476;BMP280;65308;50.078;14.854;2024-02-26T08:41:32;97936.81;;;7.53
76476;BMP280;65308;50.078;14.854;2024-02-26T08:43:59;97932.22;;;7.54
76476;BMP280;65308;50.078;14.854;2024-02-26T08:46:25;97929.84;;;7.65
76476;BMP280;65308;50.078;14.854;2024-02-26T08:48:52;97922.72;;;7.71
76476;BMP280;65308;50.078;14.854;2024-02-26T08:51:18;97925.06;;;7.88
76476;BMP280;65308;50.078;14.854;2024-02-26T08:53:45;97923.19;;;8.21
76476;BMP280;65308;50.078;14.854;2024-02-26T08:56:13;97923.47;;;8.57
76476;BMP280;65308;50.078;14.854;2024-02-26T08:58:42;97923.22;;;9.17
76476;BMP280;65308;50.078;14.854;2024-02-26T09:01:09;97921.41;;;9.68
76476;BMP280;65308;50.078;14.854;2024-02-26T09:03:35;97930.34;;;10.09
76476;BMP280;65308;50.078;14.854;2024-02-26T09:06:01;97924.00;;;10.42
76476;BMP280;65308;50.078;14.854;2024-02-26T09:08:28;97933.84;;;10.71
76476;BMP280;65308;50.078;14.854;2024-02-26T09:10:55;97925.88;;;10.77
76476;BMP280;65308;50.078;14.854;2024-02-26T09:13:23;97933.50;;;10.84
76476;BMP280;65308;50.078;14.854;2024-02-26T09:15:49;97933.38;;;10.93
76476;BMP280;65308;50.078;14.854;2024-02-26T09:18:16;97931.69;;;10.96
76476;BMP280;65308;50.078;14.854;2024-02-26T09:20:43;97931.19;;;10.92
76476;BMP280;65308;50.078;14.854;2024-02-26T09:23:09;97927.16;;;11.02
76476;BMP280;65308;50.078;14.854;2024-02-26T09:25:36;97918.81;;;11.20
76476;BMP280;65308;50.078;14.854;2024-02-26T09:28:03;97919.88;;;11.28
76476;BMP280;65308;50.078;14.854;2024-02-26T09:30:31;97923.88;;;11.39
76476;BMP280;65308;50.078;14.854;2024-02-26T09:32:58;97929.72;;;11.43
76476;BMP280;65308;50.078;14.854;2024-02-26T09:35:25;97935.41;;;11.50
76476;BMP280;65308;50.078;14.854;2024-02-26T09:37:52;97940.53;;;11.54
76476;BMP280;65308;50.078;14.854;2024-02-26T09:40:19;97946.88;;;11.51
76476;BMP280;65308;50.078;14.854;2024-02-26T09:42:45;97941.28;;;11.54
76476;BMP280;65308;50.078;14.854;2024-02-26T09:45:17;97939.16;;;11.59
76476;BMP280;65308;50.078;14.854;2024-02-26T09:47:48;97947.91;;;11.59
76476;BMP280;65308;50.078;14.854;2024-02-26T09:50:17;97948.34;;;11.52
76476;BMP280;65308;50.078;14.854;2024-02-26T09:52:48;97950.00;;;11.49
76476;BMP280;65308;50.078;14.854;2024-02-26T09:55:14;97950.44;;;11.42
76476;BMP280;65308;50.078;14.854;2024-02-26T09:57:44;97951.00;;;11.26
76476;BMP280;65308;50.078;14.854;2024-02-26T10:00:15;97952.97;;;11.25
76476;BMP280;65308;50.078;14.854;2024-02-26T10:02:45;97950.88;;;11.15
76476;BMP280;65308;50.078;14.854;2024-02-26T10:05:14;97948.44;;;11.11
76476;BMP280;65308;50.078;14.854;2024-02-26T10:07:44;97944.28;;;11.10
76476;BMP280;65308;50.078;14.854;2024-02-26T10:10:10;97950.44;;;11.16
76476;BMP280;65308;50.078;14.854;2024-02-26T10:12:37;97944.66;;;11.23
76476;BMP280;65308;50.078;14.854;2024-02-26T10:15:04;97957.44;;;11.14
76476;BMP280;65308;50.078;14.854;2024-02-26T10:17:31;97948.28;;;11.20
76476;BMP280;65308;50.078;14.854;2024-02-26T10:20:12;97947.38;;;11.29
76476;BMP280;65308;50.078;14.854;2024-02-26T10:22:38;97948.41;;;11.31
76476;BMP280;65308;50.078;14.854;2024-02-26T10:25:05;97953.25;;;11.33
76476;BMP280;65308;50.078;14.854;2024-02-26T10:27:33;97961.25;;;11.27
76476;BMP280;65308;50.078;14.854;2024-02-26T10:30:03;97952.84;;;11.40
76476;BMP280;65308;50.078;14.854;2024-02-26T10:32:30;97955.75;;;11.37
76476;BMP280;65308;50.078;14.854;2024-02-26T10:34:57;97965.56;;;11.45
76476;BMP280;65308;50.078;14.854;2024-02-26T10:37:28;97964.88;;;11.50
76476;BMP280;65308;50.078;14.854;2024-02-26T10:39:56;97964.63;;;11.48
76476;BMP280;65308;50.078;14.854;2024-02-26T10:42:22;97966.41;;;11.57
76476;BMP280;65308;50.078;14.854;2024-02-26T10:44:49;97969.34;;;11.59
76476;BMP280;65308;50.078;14.854;2024-02-26T10:47:16;97973.75;;;11.62
76476;BMP280;65308;50.078;14.854;2024-02-26T10:49:45;97966.50;;;11.68
76476;BMP280;65308;50.078;14.854;2024-02-26T10:52:13;97966.31;;;11.72
76476;BMP280;65308;50.078;14.854;2024-02-26T10:54:46;97965.13;;;11.78
76476;BMP280;65308;50.078;14.854;2024-02-26T10:57:15;97964.69;;;11.86
76476;BMP280;65308;50.078;14.854;2024-02-26T10:59:42;97966.28;;;11.98
76476;BMP280;65308;50.078;14.854;2024-02-26T11:02:10;97953.66;;;12.10
76476;BMP280;65308;50.078;14.854;2024-02-26T11:04:38;97958.09;;;12.18
76476;BMP280;65308;50.078;14.854;2024-02-26T11:07:05;97967.44;;;12.28
76476;BMP280;65308;50.078;14.854;2024-02-26T11:09:32;97970.25;;;12.51
76476;BMP280;65308;50.078;14.854;2024-02-26T11:12:01;97971.75;;;12.63
76476;BMP280;65308;50.078;14.854;2024-02-26T11:14:33;97971.06;;;12.74
76476;BMP280;65308;50.078;14.854;2024-02-26T11:17:01;97965.25;;;12.87
76476;BMP280;65308;50.078;14.854;2024-02-26T11:19:30;97973.84;;;12.91
76476;BMP280;65308;50.078;14.854;2024-02-26T11:21:58;97968.47;;;12.91
76476;BMP280;65308;50.078;14.854;2024-02-26T11:24:27;97965.81;;;13.02
76476;BMP280;65308;50.078;14.854;2024-02-26T11:26:56;97958.22;;;13.06
76476;BMP280;65308;50.078;14.854;2024-02-26T11:29:32;97956.53;;;13.03
76476;BMP280;65308;50.078;14.854;2024-02-26T11:32:00;97961.91;;;13.03
76476;BMP280;65308;50.078;14.854;2024-02-26T11:34:27;97956.53;;;13.09
76476;BMP280;65308;50.078;14.854;2024-02-26T11:36:54;97956.53;;;13.09
76476;BMP280;65308;50.078;14.854;2024-02-26T11:39:22;97962.19;;;13.16
76476;BMP280;65308;50.078;14.854;2024-02-26T11:41:50;97956.81;;;13.22
76476;BMP280;65308;50.078;14.854;2024-02-26T11:44:29;97964.66;;;13.25
76476;BMP280;65308;50.078;14.854;2024-02-26T11:46:56;97958.81;;;13.33
76476;BMP280;65308;50.078;14.854;2024-02-26T11:49:30;97967.59;;;13.33
76476;BMP280;65308;50.078;14.854;2024-02-26T11:51:58;97950.28;;;13.40
76476;BMP280;65308;50.078;14.854;2024-02-26T11:54:38;97963.94;;;13.47
76476;BMP280;65308;50.078;14.854;2024-02-26T11:57:20;97959.53;;;13.56
76476;BMP280;65308;50.078;14.854;2024-02-26T11:59:48;97958.31;;;13.62
76476;BMP280;65308;50.078;14.854;2024-02-26T12:02:40;97960.75;;;13.60
76476;BMP280;65308;50.078;14.854;2024-02-26T12:05:11;97952.94;;;13.62
76476;BMP280;65308;50.078;14.854;2024-02-26T12:07:40;97946.34;;;13.58
76476;BMP280;65308;50.078;14.854;2024-02-26T12:10:23;97943.16;;;13.54
76476;BMP280;65308;50.078;14.854;2024-02-26T12:12:58;97941.72;;;13.53
76476;BMP280;65308;50.078;14.854;2024-02-26T12:15:26;97952.19;;;13.56
76476;BMP280;65308;50.078;14.854;2024-02-26T12:17:56;97950.28;;;13.57
76476;BMP280;65308;50.078;14.854;2024-02-26T12:20:23;97949.28;;;13.54
76476;BMP280;65308;50.078;14.854;2024-02-26T12:22:50;97946.56;;;13.48
76476;BMP280;65308;50.078;14.854;2024-02-26T12:25:20;97946.09;;;13.50
76476;BMP280;65308;50.078;14.854;2024-02-26T12:27:47;97953.69;;;13.52
76476;BMP280;65308;50.078;14.854;2024-02-26T12:30:14;97949.78;;;13.58
76476;BMP280;65308;50.078;14.854;2024-02-26T12:32:42;97945.09;;;13.53
76476;BMP280;65308;50.078;14.854;2024-02-26T12:35:09;97948.03;;;13.61
76476;BMP280;65308;50.078;14.854;2024-02-26T12:37:36;97950.00;;;13.60
76476;BMP280;65308;50.078;14.854;2024-02-26T12:40:05;97940.47;;;13.59
76476;BMP280;65308;50.078;14.854;2024-02-26T12:42:33;97939.50;;;13.62
76476;BMP280;65308;50.078;14.854;2024-02-26T12:45:05;97940.00;;;13.66
76476;BMP280;65308;50.078;14.854;2024-02-26T12:47:35;97948.06;;;13.66
76476;BMP280;65308;50.078;14.854;2024-02-26T12:50:03;97940.97;;;13.63
76476;BMP280;65308;50.078;14.854;2024-02-26T12:52:31;97945.13;;;13.64
76476;BMP280;65308;50.078;14.854;2024-02-26T12:54:58;97948.31;;;13.68
76476;BMP280;65308;50.078;14.854;2024-02-26T12:57:24;97948.03;;;13.61
76476;BMP280;65308;50.078;14.854;2024-02-26T12:59:52;97950.75;;;13.55
76476;BMP280;65308;50.078;14.854;2024-02-26T13:02:19;97949.78;;;13.58
76476;BMP280;65308;50.078;14.854;2024-02-26T13:04:45;97947.81;;;13.47
76476;BMP280;65308;50.078;14.854;2024-02-26T13:07:14;97953.16;;;13.42
76476;BMP280;65308;50.078;14.854;2024-02-26T13:09:40;97955.38;;;13.43
76476;BMP280;65308;50.078;14.854;2024-02-26T13:12:08;97961.22;;;13.31
76476;BMP280;65308;50.078;14.854;2024-02-26T13:14:35;97953.16;;;13.36
76476;BMP280;65308;50.078;14.854;2024-02-26T13:17:03;97967.31;;;13.37
76476;BMP280;65308;50.078;14.854;2024-02-26T13:19:30;97966.59;;;13.36
76476;BMP280;65308;50.078;14.854;2024-02-26T13:22:03;97975.41;;;13.42
76476;BMP280;65308;50.078;14.854;2024-02-26T13:24:31;97974.19;;;13.49
76476;BMP280;65308;50.078;14.854;2024-02-26T13:26:57;97979.31;;;13.47
76476;BMP280;65308;50.078;14.854;2024-02-26T13:29:24;97974.19;;;13.38
76476;BMP280;65308;50.078;14.854;2024-02-26T13:31:54;97974.19;;;13.38
76476;BMP280;65308;50.078;14.854;2024-02-26T13:34:25;97970.75;;;13.37
76476;BMP280;65308;50.078;14.854;2024-02-26T13:36:52;97980.75;;;13.37
76476;BMP280;65308;50.078;14.854;2024-02-26T13:39:22;97988.28;;;13.05
76476;BMP280;65308;50.078;14.854;2024-02-26T13:41:51;97984.22;;;12.66
76476;BMP280;65308;50.078;14.854;2024-02-26T13:44:19;97990.13;;;12.27
76476;BMP280;65308;50.078;14.854;2024-02-26T13:46:45;97994.03;;;12.26
76476;BMP280;65308;50.078;14.854;2024-02-26T13:49:12;97998.78;;;12.11
76476;BMP280;65308;50.078;14.854;2024-02-26T13:51:39;98008.94;;;12.01
76476;BMP280;65308;50.078;14.854;2024-02-26T13:54:05;98004.13;;;12.11
76476;BMP280;65308;50.078;14.854;2024-02-26T13:56:32;97990.53;;;12.15
76476;BMP280;65308;50.078;14.854;2024-02-26T13:59:00;97993.47;;;12.17
76476;BMP280;65308;50.078;14.854;2024-02-26T14:01:27;97997.00;;;12.02
76476;BMP280;65308;50.078;14.854;2024-02-26T14:03:54;98005.28;;;11.99
76476;BMP280;65308;50.078;14.854;2024-02-26T14:06:22;97998.16;;;11.96